sensor_id;sensor_type;location;lat;lon;timestamp;pressure;altitude;pressure_sealevel;temperature;humidity
77023;BME280;65952;51.440;-2.054;2023-11-21T00:01:06;100302.00;;;12.70;69.98
77023;BME280;65952;51.440;-2.054;2023-11-21T00:03:34;100309.41;;;12.67;70.01
77023;BME280;65952;51.440;-2.054;2023-11-21T00:05:59;100305.34;;;12.72;69.93
77023;BME280;65952;51.440;-2.054;2023-11-21T00:08:26;100312.00;;;12.61;70.54
77023;BME280;65952;51.440;-2.054;2023-11-21T00:10:51;100300.31;;;12.68;70.30
77023;BME280;65952;51.440;-2.054;2023-11-21T00:13:17;100302.66;;;12.72;70.21
77023;BME280;65952;51.440;-2.054;2023-11-21T00:15:43;100316.91;;;12.57;70.66
77023;BME280;65952;51.440;-2.054;2023-11-21T00:18:08;100308.09;;;12.63;70.46
77023;BME280;65952;51.440;-2.054;2023-11-21T00:20:33;100308.09;;;12.63;70.29
77023;BME280;65952;51.440;-2.054;2023-11-21T00:22:59;100311.63;;;12.64;70.57
77023;BME280;65952;51.440;-2.054;2023-11-21T00:25:27;100311.47;;;12.65;70.54
77023;BME280;65952;51.440;-2.054;2023-11-21T00:27:53;100319.25;;;12.60;70.78
77023;BME280;65952;51.440;-2.054;2023-11-21T00:30:19;100317.19;;;12.62;70.46
77023;BME280;65952;51.440;-2.054;2023-11-21T00:32:45;100330.03;;;12.60;70.65
77023;BME280;65952;51.440;-2.054;2023-11-21T00:35:10;100326.47;;;12.60;70.64
77023;BME280;65952;51.440;-2.054;2023-11-21T00:37:36;100326.28;;;12.61;71.09
77023;BME280;65952;51.440;-2.054;2023-11-21T00:40:02;100326.47;;;12.60;70.70
77023;BME280;65952;51.440;-2.054;2023-11-21T00:42:31;100327.13;;;12.62;70.61
77023;BME280;65952;51.440;-2.054;2023-11-21T00:44:59;100335.84;;;12.64;70.84
77023;BME280;65952;51.440;-2.054;2023-11-21T00:47:24;100339.75;;;12.61;71.16
77023;BME280;65952;51.440;-2.054;2023-11-21T00:49:50;100340.03;;;12.66;70.67
77023;BME280;65952;51.440;-2.054;2023-11-21T00:52:15;100340.03;;;12.66;70.56
77023;BME280;65952;51.440;-2.054;2023-11-21T00:54:41;100342.91;;;12.65;70.76
77023;BME280;65952;51.440;-2.054;2023-11-21T00:57:07;100346.19;;;12.60;71.05
77023;BME280;65952;51.440;-2.054;2023-11-21T00:59:33;100349.16;;;12.65;70.63
77023;BME280;65952;51.440;-2.054;2023-11-21T01:01:59;100348.50;;;12.63;70.79
77023;BME280;65952;51.440;-2.054;2023-11-21T01:04:26;100356.38;;;12.65;71.12
77023;BME280;65952;51.440;-2.054;2023-11-21T01:06:52;100355.75;;;12.63;70.98
77023;BME280;65952;51.440;-2.054;2023-11-21T01:09:17;100358.25;;;12.64;71.19
77023;BME280;65952;51.440;-2.054;2023-11-21T01:11:44;100368.19;;;12.64;71.21
77023;BME280;65952;51.440;-2.054;2023-11-21T01:14:09;100369.38;;;12.61;71.04
77023;BME280;65952;51.440;-2.054;2023-11-21T01:16:36;100361.97;;;12.63;71.33
77023;BME280;65952;51.440;-2.054;2023-11-21T01:19:01;100368.56;;;12.61;71.52
77023;BME280;65952;51.440;-2.054;2023-11-21T01:21:27;100367.06;;;12.58;71.52
77023;BME280;65952;51.440;-2.054;2023-11-21T01:23:53;100375.97;;;12.59;71.60
77023;BME280;65952;51.440;-2.054;2023-11-21T01:26:20;100376.81;;;12.59;71.43
77023;BME280;65952;51.440;-2.054;2023-11-21T01:28:45;100383.88;;;12.60;71.52
77023;BME280;65952;51.440;-2.054;2023-11-21T01:31:14;100386.72;;;12.59;71.73
77023;BME280;65952;51.440;-2.054;2023-11-21T01:33:39;100392.50;;;12.56;71.82
77023;BME280;65952;51.440;-2.054;2023-11-21T01:36:05;100399.66;;;12.63;71.59
77023;BME280;65952;51.440;-2.054;2023-11-21T01:38:31;100405.88;;;12.64;71.56
77023;BME280;65952;51.440;-2.054;2023-11-21T01:40:57;100411.28;;;12.64;71.56
77023;BME280;65952;51.440;-2.054;2023-11-21T01:43:22;100416.19;;;12.60;71.91
77023;BME280;65952;51.440;-2.054;2023-11-21T01:45:48;100432.19;;;12.62;71.74
77023;BME280;65952;51.440;-2.054;2023-11-21T01:48:13;100423.78;;;12.57;72.07
77023;BME280;65952;51.440;-2.054;2023-11-21T01:50:39;100427.69;;;12.54;72.49
77023;BME280;65952;51.440;-2.054;2023-11-21T01:53:05;100430.69;;;12.59;72.01
77023;BME280;65952;51.440;-2.054;2023-11-21T01:55:32;100430.50;;;12.61;72.07
77023;BME280;65952;51.440;-2.054;2023-11-21T01:57:59;100434.09;;;12.53;72.54
77023;BME280;65952;51.440;-2.054;2023-11-21T02:00:25;100436.78;;;12.53;72.53
77023;BME280;65952;51.440;-2.054;2023-11-21T02:02:53;100437.75;;;12.60;72.19
77023;BME280;65952;51.440;-2.054;2023-11-21T02:05:19;100449.22;;;12.54;72.43
77023;BME280;65952;51.440;-2.054;2023-11-21T02:07:46;100454.94;;;12.51;72.27
77023;BME280;65952;51.440;-2.054;2023-11-21T02:10:13;100457.31;;;12.54;72.30
77023;BME280;65952;51.440;-2.054;2023-11-21T02:12:42;100460.66;;;12.56;72.36
77023;BME280;65952;51.440;-2.054;2023-11-21T02:15:10;100472.59;;;12.54;72.18
77023;BME280;65952;51.440;-2.054;2023-11-21T02:17:43;100475.66;;;12.50;72.62
77023;BME280;65952;51.440;-2.054;2023-11-21T02:20:19;100470.78;;;12.54;72.08
77023;BME280;65952;51.440;-2.054;2023-11-21T02:22:55;100480.03;;;12.51;72.07
77023;BME280;65952;51.440;-2.054;2023-11-21T02:25:28;100488.66;;;12.47;72.39
77023;BME280;65952;51.440;-2.054;2023-11-21T02:27:54;100479.25;;;12.43;72.29
77023;BME280;65952;51.440;-2.054;2023-11-21T02:30:21;100492.75;;;12.34;72.99
77023;BME280;65952;51.440;-2.054;2023-11-21T02:32:47;100492.22;;;12.39;72.71
77023;BME280;65952;51.440;-2.054;2023-11-21T02:35:13;100479.41;;;12.41;72.42
77023;BME280;65952;51.440;-2.054;2023-11-21T02:37:39;100474.69;;;12.43;72.36
77023;BME280;65952;51.440;-2.054;2023-11-21T02:40:07;100479.78;;;12.38;72.37
77023;BME280;65952;51.440;-2.054;2023-11-21T02:42:34;100480.09;;;12.35;72.22
77023;BME280;65952;51.440;-2.054;2023-11-21T02:44:59;100495.13;;;12.29;72.28
77023;BME280;65952;51.440;-2.054;2023-11-21T02:47:25;100499.66;;;12.29;72.16
77023;BME280;65952;51.440;-2.054;2023-11-21T02:49:50;100505.56;;;12.24;72.56
77023;BME280;65952;51.440;-2.054;2023-11-21T02:52:17;100498.88;;;12.20;72.59
77023;BME280;65952;51.440;-2.054;2023-11-21T02:54:42;100498.13;;;12.26;72.47
77023;BME280;65952;51.440;-2.054;2023-11-21T02:57:08;100492.94;;;12.25;72.31
77023;BME280;65952;51.440;-2.054;2023-11-21T02:59:33;100498.13;;;12.26;72.37
77023;BME280;65952;51.440;-2.054;2023-11-21T03:02:00;100505.38;;;12.26;72.29
77023;BME280;65952;51.440;-2.054;2023-11-21T03:04:25;100508.75;;;12.28;72.21
77023;BME280;65952;51.440;-2.054;2023-11-21T03:06:51;100514.97;;;12.28;72.60
77023;BME280;65952;51.440;-2.054;2023-11-21T03:09:16;100517.47;;;12.30;72.57
77023;BME280;65952;51.440;-2.054;2023-11-21T03:11:42;100513.25;;;12.35;72.67
77023;BME280;65952;51.440;-2.054;2023-11-21T03:14:07;100522.03;;;12.29;72.89
77023;BME280;65952;51.440;-2.054;2023-11-21T03:16:33;100516.59;;;12.38;72.54
77023;BME280;65952;51.440;-2.054;2023-11-21T03:18:58;100523.16;;;12.43;72.55
77023;BME280;65952;51.440;-2.054;2023-11-21T03:21:24;100528.34;;;12.53;72.12
77023;BME280;65952;51.440;-2.054;2023-11-21T03:23:50;100530.72;;;12.48;72.38
77023;BME280;65952;51.440;-2.054;2023-11-21T03:26:15;100537.28;;;12.45;72.71
77023;BME280;65952;51.440;-2.054;2023-11-21T03:28:41;100539.94;;;12.54;72.66
77023;BME280;65952;51.440;-2.054;2023-11-21T03:31:07;100535.03;;;12.57;72.11
77023;BME280;65952;51.440;-2.054;2023-11-21T03:33:34;100545.50;;;12.52;72.42
77023;BME280;65952;51.440;-2.054;2023-11-21T03:36:00;100548.50;;;12.57;72.23
77023;BME280;65952;51.440;-2.054;2023-11-21T03:38:26;100555.91;;;12.55;72.42
77023;BME280;65952;51.440;-2.054;2023-11-21T03:40:51;100562.47;;;12.61;72.39
77023;BME280;65952;51.440;-2.054;2023-11-21T03:43:16;100554.03;;;12.64;72.31
77023;BME280;65952;51.440;-2.054;2023-11-21T03:45:42;100560.28;;;12.56;72.32
77023;BME280;65952;51.440;-2.054;2023-11-21T03:48:07;100555.88;;;12.63;72.33
77023;BME280;65952;51.440;-2.054;2023-11-21T03:50:34;100567.16;;;12.67;72.19
77023;BME280;65952;51.440;-2.054;2023-11-21T03:52:59;100568.34;;;12.64;72.42
77023;BME280;65952;51.440;-2.054;2023-11-21T03:55:24;100577.94;;;12.67;72.15
77023;BME280;65952;51.440;-2.054;2023-11-21T03:57:50;100582.13;;;12.70;71.93
77023;BME280;65952;51.440;-2.054;2023-11-21T04:00:17;100586.66;;;12.69;72.12
77023;BME280;65952;51.440;-2.054;2023-11-21T04:02:42;100592.72;;;12.71;71.85
77023;BME280;65952;51.440;-2.054;2023-11-21T04:05:08;100595.59;;;12.70;72.14
77023;BME280;65952;51.440;-2.054;2023-11-21T04:07:34;100595.09;;;12.66;72.27
77023;BME280;65952;51.440;-2.054;2023-11-21T04:10:00;100594.91;;;12.67;71.96
77023;BME280;65952;51.440;-2.054;2023-11-21T04:12:25;100604.50;;;12.70;71.92
77023;BME280;65952;51.440;-2.054;2023-11-21T04:14:51;100607.03;;;12.72;71.46
77023;BME280;65952;51.440;-2.054;2023-11-21T04:17:19;100611.44;;;12.64;71.74
77023;BME280;65952;51.440;-2.054;2023-11-21T04:19:45;100610.44;;;12.65;71.83
77023;BME280;65952;51.440;-2.054;2023-11-21T04:22:11;100608.75;;;12.64;71.64
77023;BME280;65952;51.440;-2.054;2023-11-21T04:24:36;100605.34;;;12.71;71.45
77023;BME280;65952;51.440;-2.054;2023-11-21T04:27:02;100613.13;;;12.65;71.76
77023;BME280;65952;51.440;-2.054;2023-11-21T04:29:28;100615.16;;;12.63;71.53
77023;BME280;65952;51.440;-2.054;2023-11-21T04:31:54;100616.47;;;12.67;71.39
77023;BME280;65952;51.440;-2.054;2023-11-21T04:34:19;100622.28;;;12.48;71.92
77023;BME280;65952;51.440;-2.054;2023-11-21T04:36:44;100623.09;;;12.57;71.94
77023;BME280;65952;51.440;-2.054;2023-11-21T04:39:10;100624.09;;;12.56;71.61
77023;BME280;65952;51.440;-2.054;2023-11-21T04:41:36;100630.72;;;12.37;71.97
77023;BME280;65952;51.440;-2.054;2023-11-21T04:44:05;100635.09;;;12.29;72.31
77023;BME280;65952;51.440;-2.054;2023-11-21T04:46:30;100647.22;;;12.25;72.23
77023;BME280;65952;51.440;-2.054;2023-11-21T04:48:56;100639.84;;;12.19;72.14
77023;BME280;65952;51.440;-2.054;2023-11-21T04:51:22;100638.97;;;12.18;72.15
77023;BME280;65952;51.440;-2.054;2023-11-21T04:53:47;100644.72;;;12.07;72.24
77023;BME280;65952;51.440;-2.054;2023-11-21T04:56:13;100647.06;;;11.94;72.51
77023;BME280;65952;51.440;-2.054;2023-11-21T04:58:38;100665.25;;;12.00;72.12
77023;BME280;65952;51.440;-2.054;2023-11-21T05:01:05;100674.13;;;12.09;72.09
77023;BME280;65952;51.440;-2.054;2023-11-21T05:03:31;100676.50;;;12.12;71.63
77023;BME280;65952;51.440;-2.054;2023-11-21T05:05:57;100676.66;;;12.02;71.90
77023;BME280;65952;51.440;-2.054;2023-11-21T05:08:22;100684.56;;;12.03;71.72
77023;BME280;65952;51.440;-2.054;2023-11-21T05:10:47;100693.81;;;11.76;72.45
77023;BME280;65952;51.440;-2.054;2023-11-21T05:13:14;100699.16;;;11.84;71.82
77023;BME280;65952;51.440;-2.054;2023-11-21T05:15:42;100699.50;;;11.90;71.40
77023;BME280;65952;51.440;-2.054;2023-11-21T05:18:07;100703.53;;;11.77;71.66
77023;BME280;65952;51.440;-2.054;2023-11-21T05:20:33;100705.53;;;11.67;71.43
77023;BME280;65952;51.440;-2.054;2023-11-21T05:22:58;100721.16;;;11.63;71.16
77023;BME280;65952;51.440;-2.054;2023-11-21T05:25:24;100709.38;;;11.48;71.16
77023;BME280;65952;51.440;-2.054;2023-11-21T05:27:49;100712.63;;;11.84;70.00
77023;BME280;65952;51.440;-2.054;2023-11-21T05:30:15;100714.16;;;11.79;69.89
77023;BME280;65952;51.440;-2.054;2023-11-21T05:32:41;100731.88;;;11.47;69.25
77023;BME280;65952;51.440;-2.054;2023-11-21T05:35:10;100730.25;;;11.62;68.85
77023;BME280;65952;51.440;-2.054;2023-11-21T05:37:40;100742.00;;;11.69;68.54
77023;BME280;65952;51.440;-2.054;2023-11-21T05:40:06;100744.78;;;11.43;68.79
77023;BME280;65952;51.440;-2.054;2023-11-21T05:42:33;100738.72;;;11.33;68.53
77023;BME280;65952;51.440;-2.054;2023-11-21T05:44:58;100747.47;;;11.43;68.00
77023;BME280;65952;51.440;-2.054;2023-11-21T05:47:41;100747.44;;;11.27;67.51
77023;BME280;65952;51.440;-2.054;2023-11-21T05:50:08;100761.38;;;11.30;67.34
77023;BME280;65952;51.440;-2.054;2023-11-21T05:52:38;100759.28;;;11.08;67.13
77023;BME280;65952;51.440;-2.054;2023-11-21T05:55:04;100778.19;;;10.98;67.00
77023;BME280;65952;51.440;-2.054;2023-11-21T05:57:36;100782.34;;;11.18;66.19
77023;BME280;65952;51.440;-2.054;2023-11-21T06:00:13;100777.63;;;11.20;65.60
77023;BME280;65952;51.440;-2.054;2023-11-21T06:02:52;100781.00;;;10.88;66.34
77023;BME280;65952;51.440;-2.054;2023-11-21T06:05:22;100790.66;;;11.33;65.71
77023;BME280;65952;51.440;-2.054;2023-11-21T06:07:49;100798.03;;;11.31;65.41
77023;BME280;65952;51.440;-2.054;2023-11-21T06:10:15;100796.09;;;11.50;65.14
77023;BME280;65952;51.440;-2.054;2023-11-21T06:12:43;100804.22;;;11.32;65.28
77023;BME280;65952;51.440;-2.054;2023-11-21T06:15:09;100801.41;;;11.42;64.94
77023;BME280;65952;51.440;-2.054;2023-11-21T06:17:38;100808.34;;;11.10;65.65
77023;BME280;65952;51.440;-2.054;2023-11-21T06:20:05;100807.69;;;11.50;65.06
77023;BME280;65952;51.440;-2.054;2023-11-21T06:22:38;100807.94;;;11.31;65.42
77023;BME280;65952;51.440;-2.054;2023-11-21T06:25:04;100796.03;;;11.42;64.36
77023;BME280;65952;51.440;-2.054;2023-11-21T06:27:32;100803.06;;;11.34;64.62
77023;BME280;65952;51.440;-2.054;2023-11-21T06:29:57;100804.69;;;11.62;64.50
77023;BME280;65952;51.440;-2.054;2023-11-21T06:32:22;100810.47;;;11.41;64.67
77023;BME280;65952;51.440;-2.054;2023-11-21T06:34:48;100806.56;;;11.61;64.78
77023;BME280;65952;51.440;-2.054;2023-11-21T06:37:14;100817.00;;;11.30;64.74
77023;BME280;65952;51.440;-2.054;2023-11-21T06:39:40;100824.56;;;11.34;64.18
77023;BME280;65952;51.440;-2.054;2023-11-21T06:42:05;100827.88;;;11.20;64.23
77023;BME280;65952;51.440;-2.054;2023-11-21T06:44:31;100831.47;;;11.37;64.10
77023;BME280;65952;51.440;-2.054;2023-11-21T06:46:56;100838.59;;;11.46;63.93
77023;BME280;65952;51.440;-2.054;2023-11-21T06:49:21;100832.69;;;11.43;63.88
77023;BME280;65952;51.440;-2.054;2023-11-21T06:51:48;100838.31;;;11.58;63.63
77023;BME280;65952;51.440;-2.054;2023-11-21T06:54:13;100843.63;;;11.49;63.33
77023;BME280;65952;51.440;-2.054;2023-11-21T06:56:39;100850.50;;;11.44;63.59
77023;BME280;65952;51.440;-2.054;2023-11-21T06:59:05;100857.56;;;11.45;63.45
77023;BME280;65952;51.440;-2.054;2023-11-21T07:01:31;100848.47;;;11.46;63.65
77023;BME280;65952;51.440;-2.054;2023-11-21T07:03:59;100856.75;;;11.52;63.43
77023;BME280;65952;51.440;-2.054;2023-11-21T07:06:24;100859.91;;;11.40;63.25
77023;BME280;65952;51.440;-2.054;2023-11-21T07:08:50;100864.63;;;11.46;63.41
77023;BME280;65952;51.440;-2.054;2023-11-21T07:11:15;100870.00;;;11.46;63.42
77023;BME280;65952;51.440;-2.054;2023-11-21T07:13:41;100876.63;;;11.60;62.72
77023;BME280;65952;51.440;-2.054;2023-11-21T07:16:07;100874.94;;;11.59;62.75
77023;BME280;65952;51.440;-2.054;2023-11-21T07:18:32;100878.31;;;11.61;62.90
77023;BME280;65952;51.440;-2.054;2023-11-21T07:20:57;100880.69;;;11.64;62.66
77023;BME280;65952;51.440;-2.054;2023-11-21T07:23:24;100873.13;;;11.67;62.72
77023;BME280;65952;51.440;-2.054;2023-11-21T07:25:49;100879.81;;;11.63;62.86
77023;BME280;65952;51.440;-2.054;2023-11-21T07:28:14;100888.81;;;11.46;62.89
77023;BME280;65952;51.440;-2.054;2023-11-21T07:30:40;100884.00;;;11.58;62.88
77023;BME280;65952;51.440;-2.054;2023-11-21T07:33:05;100891.28;;;11.65;62.83
77023;BME280;65952;51.440;-2.054;2023-11-21T07:35:32;100898.97;;;11.60;63.18
77023;BME280;65952;51.440;-2.054;2023-11-21T07:37:57;100905.38;;;11.59;62.79
77023;BME280;65952;51.440;-2.054;2023-11-21T07:40:23;100901.66;;;11.60;62.73
77023;BME280;65952;51.440;-2.054;2023-11-21T07:42:48;100912.72;;;11.49;63.48
77023;BME280;65952;51.440;-2.054;2023-11-21T07:45:15;100915.69;;;11.46;63.28
77023;BME280;65952;51.440;-2.054;2023-11-21T07:47:40;100923.81;;;11.54;63.05
77023;BME280;65952;51.440;-2.054;2023-11-21T07:50:06;100928.22;;;11.29;63.77
77023;BME280;65952;51.440;-2.054;2023-11-21T07:52:32;100928.09;;;11.38;63.70
77023;BME280;65952;51.440;-2.054;2023-11-21T07:54:58;100923.34;;;11.59;62.99
77023;BME280;65952;51.440;-2.054;2023-11-21T07:57:24;100925.00;;;11.51;63.36
77023;BME280;65952;51.440;-2.054;2023-11-21T07:59:49;100931.56;;;11.57;63.19
77023;BME280;65952;51.440;-2.054;2023-11-21T08:02:15;100931.41;;;11.59;63.15
77023;BME280;65952;51.440;-2.054;2023-11-21T08:04:42;100938.16;;;11.63;63.28
77023;BME280;65952;51.440;-2.054;2023-11-21T08:07:08;100937.09;;;11.55;63.48
77023;BME280;65952;51.440;-2.054;2023-11-21T08:09:34;100947.91;;;11.37;63.75
77023;BME280;65952;51.440;-2.054;2023-11-21T08:12:00;100954.22;;;11.54;63.51
77023;BME280;65952;51.440;-2.054;2023-11-21T08:14:27;100955.25;;;11.53;63.46
77023;BME280;65952;51.440;-2.054;2023-11-21T08:16:53;100955.13;;;11.63;63.64
77023;BME280;65952;51.440;-2.054;2023-11-21T08:19:22;100952.97;;;11.41;64.02
77023;BME280;65952;51.440;-2.054;2023-11-21T08:21:50;100961.91;;;11.67;63.53
77023;BME280;65952;51.440;-2.054;2023-11-21T08:24:15;100962.09;;;11.74;63.35
77023;BME280;65952;51.440;-2.054;2023-11-21T08:26:41;100965.41;;;11.68;63.61
77023;BME280;65952;51.440;-2.054;2023-11-21T08:29:06;100967.41;;;11.66;63.42
77023;BME280;65952;51.440;-2.054;2023-11-21T08:31:35;100969.44;;;11.64;63.59
77023;BME280;65952;51.440;-2.054;2023-11-21T08:34:01;100969.88;;;11.51;64.28
77023;BME280;65952;51.440;-2.054;2023-11-21T08:36:28;100969.81;;;11.69;63.86
77023;BME280;65952;51.440;-2.054;2023-11-21T08:38:53;100978.06;;;11.76;63.85
77023;BME280;65952;51.440;-2.054;2023-11-21T08:41:19;100981.25;;;11.45;64.39
77023;BME280;65952;51.440;-2.054;2023-11-21T08:43:50;100979.94;;;11.83;63.58
77023;BME280;65952;51.440;-2.054;2023-11-21T08:46:16;100996.69;;;11.95;63.55
77023;BME280;65952;51.440;-2.054;2023-11-21T08:48:43;100993.78;;;11.89;63.33
77023;BME280;65952;51.440;-2.054;2023-11-21T08:51:11;101007.47;;;11.69;64.07
77023;BME280;65952;51.440;-2.054;2023-11-21T08:53:37;101006.50;;;12.05;63.36
77023;BME280;65952;51.440;-2.054;2023-11-21T08:56:03;100999.31;;;12.13;62.76
77023;BME280;65952;51.440;-2.054;2023-11-21T08:58:30;101014.03;;;12.01;63.57
77023;BME280;65952;51.440;-2.054;2023-11-21T09:00:57;101018.50;;;11.92;63.61
77023;BME280;65952;51.440;-2.054;2023-11-21T09:03:22;101015.75;;;12.02;63.33
77023;BME280;65952;51.440;-2.054;2023-11-21T09:05:48;101014.56;;;11.96;63.39
77023;BME280;65952;51.440;-2.054;2023-11-21T09:08:13;101013.69;;;11.96;63.55
77023;BME280;65952;51.440;-2.054;2023-11-21T09:10:39;101018.38;;;11.94;63.60
77023;BME280;65952;51.440;-2.054;2023-11-21T09:13:04;101021.97;;;12.02;63.24
77023;BME280;65952;51.440;-2.054;2023-11-21T09:15:30;101031.09;;;12.10;63.58
77023;BME280;65952;51.440;-2.054;2023-11-21T09:17:58;101030.88;;;12.03;63.29
77023;BME280;65952;51.440;-2.054;2023-11-21T09:20:23;101030.78;;;11.86;63.96
77023;BME280;65952;51.440;-2.054;2023-11-21T09:22:49;101041.47;;;11.96;63.86
77023;BME280;65952;51.440;-2.054;2023-11-21T09:25:15;101040.22;;;12.17;63.10
77023;BME280;65952;51.440;-2.054;2023-11-21T09:27:40;101044.75;;;12.16;63.22
77023;BME280;65952;51.440;-2.054;2023-11-21T09:30:07;101047.66;;;12.23;63.29
77023;BME280;65952;51.440;-2.054;2023-11-21T09:32:37;101038.78;;;11.78;64.35
77023;BME280;65952;51.440;-2.054;2023-11-21T09:35:04;101044.69;;;11.82;64.23
77023;BME280;65952;51.440;-2.054;2023-11-21T09:37:30;101041.84;;;12.10;63.81
77023;BME280;65952;51.440;-2.054;2023-11-21T09:39:55;101042.19;;;12.07;63.50
77023;BME280;65952;51.440;-2.054;2023-11-21T09:42:34;101053.47;;;11.84;64.50
77023;BME280;65952;51.440;-2.054;2023-11-21T09:47:52;101064.00;;;12.03;64.31
77023;BME280;65952;51.440;-2.054;2023-11-21T09:50:19;101065.69;;;11.96;64.21
77023;BME280;65952;51.440;-2.054;2023-11-21T09:53:04;101057.84;;;11.85;64.60
77023;BME280;65952;51.440;-2.054;2023-11-21T09:55:36;101057.97;;;11.83;64.27
77023;BME280;65952;51.440;-2.054;2023-11-21T09:58:04;101067.34;;;11.97;64.22
77023;BME280;65952;51.440;-2.054;2023-11-21T10:00:33;101076.44;;;11.96;64.21
77023;BME280;65952;51.440;-2.054;2023-11-21T10:02:59;101080.41;;;11.92;64.29
77023;BME280;65952;51.440;-2.054;2023-11-21T10:05:25;101074.16;;;12.10;63.97
77023;BME280;65952;51.440;-2.054;2023-11-21T10:07:50;101078.53;;;12.11;64.36
77023;BME280;65952;51.440;-2.054;2023-11-21T10:10:18;101078.50;;;12.02;64.48
77023;BME280;65952;51.440;-2.054;2023-11-21T10:12:48;101078.03;;;11.89;64.92
77023;BME280;65952;51.440;-2.054;2023-11-21T10:15:14;101065.75;;;11.86;65.08
77023;BME280;65952;51.440;-2.054;2023-11-21T10:17:42;101084.13;;;11.91;65.27
77023;BME280;65952;51.440;-2.054;2023-11-21T10:20:11;101080.19;;;11.85;65.25
77023;BME280;65952;51.440;-2.054;2023-11-21T10:22:41;101084.63;;;11.95;65.30
77023;BME280;65952;51.440;-2.054;2023-11-21T10:25:10;101088.66;;;12.17;64.30
77023;BME280;65952;51.440;-2.054;2023-11-21T10:27:38;101101.69;;;12.03;65.07
77023;BME280;65952;51.440;-2.054;2023-11-21T10:30:05;101095.69;;;11.65;66.12
77023;BME280;65952;51.440;-2.054;2023-11-21T10:32:31;101104.25;;;12.05;65.14
77023;BME280;65952;51.440;-2.054;2023-11-21T10:35:00;101107.94;;;12.04;64.97
77023;BME280;65952;51.440;-2.054;2023-11-21T10:37:29;101118.31;;;11.81;65.62
77023;BME280;65952;51.440;-2.054;2023-11-21T10:39:58;101117.19;;;12.01;65.14
77023;BME280;65952;51.440;-2.054;2023-11-21T10:42:24;101127.78;;;12.03;65.38
77023;BME280;65952;51.440;-2.054;2023-11-21T10:44:49;101123.34;;;12.20;64.72
77023;BME280;65952;51.440;-2.054;2023-11-21T10:47:16;101132.63;;;11.99;65.29
77023;BME280;65952;51.440;-2.054;2023-11-21T10:49:44;101135.53;;;12.06;65.00
77023;BME280;65952;51.440;-2.054;2023-11-21T10:52:10;101139.25;;;12.05;65.25
77023;BME280;65952;51.440;-2.054;2023-11-21T10:54:45;101128.56;;;12.22;64.81
77023;BME280;65952;51.440;-2.054;2023-11-21T10:57:13;101127.88;;;12.19;64.66
77023;BME280;65952;51.440;-2.054;2023-11-21T10:59:43;101134.50;;;12.25;64.73
77023;BME280;65952;51.440;-2.054;2023-11-21T11:02:23;101145.09;;;11.82;65.90
77023;BME280;65952;51.440;-2.054;2023-11-21T11:04:52;101136.69;;;12.30;64.70
77023;BME280;65952;51.440;-2.054;2023-11-21T11:07:17;101139.34;;;12.22;64.88
77023;BME280;65952;51.440;-2.054;2023-11-21T11:09:44;101143.94;;;12.29;64.76
77023;BME280;65952;51.440;-2.054;2023-11-21T11:12:11;101141.94;;;12.05;65.56
77023;BME280;65952;51.440;-2.054;2023-11-21T11:14:40;101154.44;;;12.14;65.19
77023;BME280;65952;51.440;-2.054;2023-11-21T11:17:07;101154.59;;;12.13;65.10
77023;BME280;65952;51.440;-2.054;2023-11-21T11:19:34;101150.31;;;12.28;64.95
77023;BME280;65952;51.440;-2.054;2023-11-21T11:25:20;101165.09;;;12.24;64.83
77023;BME280;65952;51.440;-2.054;2023-11-21T11:28:19;101162.41;;;12.24;64.87
77023;BME280;65952;51.440;-2.054;2023-11-21T11:31:13;101160.09;;;12.29;65.03
77023;BME280;65952;51.440;-2.054;2023-11-21T11:36:55;101171.41;;;12.41;64.85
77023;BME280;65952;51.440;-2.054;2023-11-21T11:39:34;101164.47;;;12.30;64.76
77023;BME280;65952;51.440;-2.054;2023-11-21T11:42:02;101171.56;;;12.31;65.09
77023;BME280;65952;51.440;-2.054;2023-11-21T11:47:19;101170.59;;;11.78;66.89
77023;BME280;65952;51.440;-2.054;2023-11-21T11:49:57;101178.56;;;12.24;65.78
77023;BME280;65952;51.440;-2.054;2023-11-21T11:54:59;101190.78;;;12.37;65.61
77023;BME280;65952;51.440;-2.054;2023-11-21T11:57:24;101192.03;;;12.24;65.67
77023;BME280;65952;51.440;-2.054;2023-11-21T12:02:42;101201.47;;;12.28;65.75
77023;BME280;65952;51.440;-2.054;2023-11-21T12:05:10;101197.97;;;12.10;66.52
77023;BME280;65952;51.440;-2.054;2023-11-21T12:10:18;101194.63;;;12.34;66.01
77023;BME280;65952;51.440;-2.054;2023-11-21T12:12:49;101201.16;;;12.31;66.03
77023;BME280;65952;51.440;-2.054;2023-11-21T12:15:15;101204.53;;;12.33;65.98
77023;BME280;65952;51.440;-2.054;2023-11-21T12:17:44;101204.41;;;12.17;66.51
77023;BME280;65952;51.440;-2.054;2023-11-21T12:20:11;101195.28;;;12.62;64.94
77023;BME280;65952;51.440;-2.054;2023-11-21T12:22:56;101192.41;;;12.64;64.86
77023;BME280;65952;51.440;-2.054;2023-11-21T12:25:26;101201.00;;;12.59;65.29
77023;BME280;65952;51.440;-2.054;2023-11-21T12:27:57;101203.94;;;12.74;64.76
77023;BME280;65952;51.440;-2.054;2023-11-21T12:30:24;101216.50;;;12.13;66.66
77023;BME280;65952;51.440;-2.054;2023-11-21T12:32:54;101210.88;;;12.50;65.74
77023;BME280;65952;51.440;-2.054;2023-11-21T12:35:24;101211.22;;;12.03;66.81
77023;BME280;65952;51.440;-2.054;2023-11-21T12:37:51;101219.06;;;12.41;66.09
77023;BME280;65952;51.440;-2.054;2023-11-21T12:40:17;101217.78;;;11.54;68.44
77023;BME280;65952;51.440;-2.054;2023-11-21T12:42:47;101226.91;;;12.08;66.96
77023;BME280;65952;51.440;-2.054;2023-11-21T12:47:50;101241.59;;;12.40;66.04
77023;BME280;65952;51.440;-2.054;2023-11-21T12:50:19;101248.22;;;12.27;66.22
77023;BME280;65952;51.440;-2.054;2023-11-21T12:52:47;101256.56;;;12.16;66.78
77023;BME280;65952;51.440;-2.054;2023-11-21T12:55:20;101255.94;;;12.22;66.64
77023;BME280;65952;51.440;-2.054;2023-11-21T12:57:53;101256.06;;;12.39;65.79
77023;BME280;65952;51.440;-2.054;2023-11-21T13:00:32;101258.00;;;12.28;66.07
77023;BME280;65952;51.440;-2.054;2023-11-21T13:02:59;101271.56;;;12.00;67.19